sensor_id;sensor_type;location;lat;lon;timestamp;P1;durP1;ratioP1;P2;durP2;ratioP2
13469;SDS011;6807;48.682;9.032;2023-07-24T00:01:17;8.60;;;6.38;;
13469;SDS011;6807;48.682;9.032;2023-07-24T00:03:44;7.63;;;5.88;;
13469;SDS011;6807;48.682;9.032;2023-07-24T00:06:12;8.82;;;6.68;;
13469;SDS011;6807;48.682;9.032;2023-07-24T00:08:39;8.10;;;6.15;;
13469;SDS011;6807;48.682;9.032;2023-07-24T00:11:06;22.40;;;6.60;;
13469;SDS011;6807;48.682;9.032;2023-07-24T00:13:33;8.88;;;6.35;;
13469;SDS011;6807;48.682;9.032;2023-07-24T00:16:00;9.80;;;7.18;;
13469;SDS011;6807;48.682;9.032;2023-07-24T00:18:31;8.27;;;6.07;;
13469;SDS011;6807;48.682;9.032;2023-07-24T00:20:58;11.57;;;6.88;;
13469;SDS011;6807;48.682;9.032;2023-07-24T00:23:26;10.90;;;7.05;;
13469;SDS011;6807;48.682;9.032;2023-07-24T00:25:53;11.38;;;7.68;;
13469;SDS011;6807;48.682;9.032;2023-07-24T00:28:20;10.45;;;6.55;;
13469;SDS011;6807;48.682;9.032;2023-07-24T00:30:47;10.70;;;6.68;;
13469;SDS011;6807;48.682;9.032;2023-07-24T00:33:14;8.18;;;6.30;;
13469;SDS011;6807;48.682;9.032;2023-07-24T00:35:40;9.38;;;7.00;;
13469;SDS011;6807;48.682;9.032;2023-07-24T00:38:07;8.65;;;6.10;;
13469;SDS011;6807;48.682;9.032;2023-07-24T00:40:35;8.68;;;6.25;;
13469;SDS011;6807;48.682;9.032;2023-07-24T00:43:02;7.93;;;5.82;;
13469;SDS011;6807;48.682;9.032;2023-07-24T00:45:29;10.05;;;7.15;;
13469;SDS011;6807;48.682;9.032;2023-07-24T00:47:56;8.27;;;6.18;;
13469;SDS011;6807;48.682;9.032;2023-07-24T00:50:24;9.45;;;6.95;;
13469;SDS011;6807;48.682;9.032;2023-07-24T00:52:51;9.45;;;7.00;;
13469;SDS011;6807;48.682;9.032;2023-07-24T00:55:18;10.52;;;6.63;;
13469;SDS011;6807;48.682;9.032;2023-07-24T00:57:46;7.43;;;6.03;;
13469;SDS011;6807;48.682;9.032;2023-07-24T01:00:13;10.63;;;7.22;;
13469;SDS011;6807;48.682;9.032;2023-07-24T01:02:41;9.57;;;6.25;;
13469;SDS011;6807;48.682;9.032;2023-07-24T01:05:09;9.57;;;7.25;;
13469;SDS011;6807;48.682;9.032;2023-07-24T01:07:39;10.55;;;6.93;;
13469;SDS011;6807;48.682;9.032;2023-07-24T01:10:06;9.48;;;6.70;;
13469;SDS011;6807;48.682;9.032;2023-07-24T01:12:35;7.75;;;6.22;;
13469;SDS011;6807;48.682;9.032;2023-07-24T01:15:08;7.80;;;5.97;;
13469;SDS011;6807;48.682;9.032;2023-07-24T01:17:41;8.35;;;6.28;;
13469;SDS011;6807;48.682;9.032;2023-07-24T01:20:11;8.05;;;5.93;;
13469;SDS011;6807;48.682;9.032;2023-07-24T01:22:42;9.10;;;6.20;;
13469;SDS011;6807;48.682;9.032;2023-07-24T01:25:18;9.55;;;6.50;;
13469;SDS011;6807;48.682;9.032;2023-07-24T01:27:55;9.57;;;5.95;;
13469;SDS011;6807;48.682;9.032;2023-07-24T01:30:22;9.65;;;6.68;;
13469;SDS011;6807;48.682;9.032;2023-07-24T01:32:49;8.48;;;6.55;;
13469;SDS011;6807;48.682;9.032;2023-07-24T01:35:16;9.95;;;6.50;;
13469;SDS011;6807;48.682;9.032;2023-07-24T01:37:43;7.75;;;6.25;;
13469;SDS011;6807;48.682;9.032;2023-07-24T01:40:12;8.85;;;6.32;;
13469;SDS011;6807;48.682;9.032;2023-07-24T01:42:39;7.95;;;6.20;;
13469;SDS011;6807;48.682;9.032;2023-07-24T01:45:09;8.63;;;6.78;;
13469;SDS011;6807;48.682;9.032;2023-07-24T01:47:36;7.95;;;6.05;;
13469;SDS011;6807;48.682;9.032;2023-07-24T01:50:04;7.97;;;5.95;;
13469;SDS011;6807;48.682;9.032;2023-07-24T01:52:32;9.55;;;6.43;;
13469;SDS011;6807;48.682;9.032;2023-07-24T01:54:58;8.32;;;5.97;;
13469;SDS011;6807;48.682;9.032;2023-07-24T01:57:25;8.82;;;6.78;;
13469;SDS011;6807;48.682;9.032;2023-07-24T01:59:52;8.43;;;6.18;;
13469;SDS011;6807;48.682;9.032;2023-07-24T02:02:20;8.60;;;6.38;;
13469;SDS011;6807;48.682;9.032;2023-07-24T02:04:54;11.02;;;6.53;;
13469;SDS011;6807;48.682;9.032;2023-07-24T02:07:21;7.82;;;6.00;;
13469;SDS011;6807;48.682;9.032;2023-07-24T02:09:48;9.40;;;6.38;;
13469;SDS011;6807;48.682;9.032;2023-07-24T02:12:14;11.43;;;7.03;;
13469;SDS011;6807;48.682;9.032;2023-07-24T02:14:41;8.98;;;6.72;;
13469;SDS011;6807;48.682;9.032;2023-07-24T02:17:08;8.23;;;6.38;;
13469;SDS011;6807;48.682;9.032;2023-07-24T02:19:36;10.73;;;6.40;;
13469;SDS011;6807;48.682;9.032;2023-07-24T02:22:03;8.70;;;6.40;;
13469;SDS011;6807;48.682;9.032;2023-07-24T02:24:30;8.85;;;5.70;;
13469;SDS011;6807;48.682;9.032;2023-07-24T02:26:57;10.65;;;6.18;;
13469;SDS011;6807;48.682;9.032;2023-07-24T02:29:23;8.68;;;6.18;;
13469;SDS011;6807;48.682;9.032;2023-07-24T02:31:50;9.52;;;6.85;;
13469;SDS011;6807;48.682;9.032;2023-07-24T02:34:17;8.60;;;6.30;;
13469;SDS011;6807;48.682;9.032;2023-07-24T02:36:45;7.38;;;5.75;;
13469;SDS011;6807;48.682;9.032;2023-07-24T02:39:12;9.43;;;7.22;;
13469;SDS011;6807;48.682;9.032;2023-07-24T02:41:39;9.48;;;6.80;;
13469;SDS011;6807;48.682;9.032;2023-07-24T02:44:06;7.40;;;5.63;;
13469;SDS011;6807;48.682;9.032;2023-07-24T02:46:32;8.77;;;6.10;;
13469;SDS011;6807;48.682;9.032;2023-07-24T02:48:59;8.70;;;6.53;;
13469;SDS011;6807;48.682;9.032;2023-07-24T02:51:26;7.45;;;5.85;;
13469;SDS011;6807;48.682;9.032;2023-07-24T02:53:54;8.25;;;6.43;;
13469;SDS011;6807;48.682;9.032;2023-07-24T02:56:21;8.13;;;6.22;;
13469;SDS011;6807;48.682;9.032;2023-07-24T02:58:48;9.98;;;6.35;;
13469;SDS011;6807;48.682;9.032;2023-07-24T03:01:15;8.77;;;6.43;;
13469;SDS011;6807;48.682;9.032;2023-07-24T03:03:42;9.93;;;6.55;;
13469;SDS011;6807;48.682;9.032;2023-07-24T03:06:08;8.88;;;6.47;;
13469;SDS011;6807;48.682;9.032;2023-07-24T03:08:35;10.23;;;6.22;;
13469;SDS011;6807;48.682;9.032;2023-07-24T03:11:05;9.07;;;6.53;;
13469;SDS011;6807;48.682;9.032;2023-07-24T03:13:34;8.95;;;7.05;;
13469;SDS011;6807;48.682;9.032;2023-07-24T03:16:00;9.90;;;6.90;;
13469;SDS011;6807;48.682;9.032;2023-07-24T03:18:27;8.90;;;6.88;;
13469;SDS011;6807;48.682;9.032;2023-07-24T03:20:54;10.80;;;6.47;;
13469;SDS011;6807;48.682;9.032;2023-07-24T03:23:23;8.77;;;6.03;;
13469;SDS011;6807;48.682;9.032;2023-07-24T03:25:50;8.10;;;6.28;;
13469;SDS011;6807;48.682;9.032;2023-07-24T03:28:18;10.43;;;6.38;;
13469;SDS011;6807;48.682;9.032;2023-07-24T03:30:45;9.88;;;6.57;;
13469;SDS011;6807;48.682;9.032;2023-07-24T03:33:12;8.73;;;6.63;;
13469;SDS011;6807;48.682;9.032;2023-07-24T03:35:39;9.00;;;6.18;;
13469;SDS011;6807;48.682;9.032;2023-07-24T03:38:05;8.95;;;6.00;;
13469;SDS011;6807;48.682;9.032;2023-07-24T03:40:32;9.98;;;6.35;;
13469;SDS011;6807;48.682;9.032;2023-07-24T03:42:59;8.70;;;6.50;;
13469;SDS011;6807;48.682;9.032;2023-07-24T03:45:27;12.27;;;7.32;;
13469;SDS011;6807;48.682;9.032;2023-07-24T03:47:54;11.90;;;6.85;;
13469;SDS011;6807;48.682;9.032;2023-07-24T03:50:21;10.05;;;7.07;;
13469;SDS011;6807;48.682;9.032;2023-07-24T03:52:47;9.27;;;6.78;;
13469;SDS011;6807;48.682;9.032;2023-07-24T03:55:14;10.30;;;7.10;;
13469;SDS011;6807;48.682;9.032;2023-07-24T03:57:41;7.88;;;6.00;;
13469;SDS011;6807;48.682;9.032;2023-07-24T04:00:08;10.90;;;7.10;;
13469;SDS011;6807;48.682;9.032;2023-07-24T04:02:37;8.48;;;6.22;;
13469;SDS011;6807;48.682;9.032;2023-07-24T04:05:04;8.82;;;6.72;;
13469;SDS011;6807;48.682;9.032;2023-07-24T04:07:31;9.27;;;6.32;;
13469;SDS011;6807;48.682;9.032;2023-07-24T04:09:58;10.13;;;7.10;;
13469;SDS011;6807;48.682;9.032;2023-07-24T04:12:25;10.43;;;6.47;;
13469;SDS011;6807;48.682;9.032;2023-07-24T04:14:52;10.63;;;6.93;;
13469;SDS011;6807;48.682;9.032;2023-07-24T04:17:19;9.48;;;6.47;;
13469;SDS011;6807;48.682;9.032;2023-07-24T04:19:47;9.98;;;6.72;;
13469;SDS011;6807;48.682;9.032;2023-07-24T04:22:13;9.35;;;6.50;;
13469;SDS011;6807;48.682;9.032;2023-07-24T04:24:40;8.48;;;6.75;;
13469;SDS011;6807;48.682;9.032;2023-07-24T04:27:08;9.23;;;6.53;;
13469;SDS011;6807;48.682;9.032;2023-07-24T04:29:35;9.40;;;6.70;;
13469;SDS011;6807;48.682;9.032;2023-07-24T04:32:02;8.85;;;5.80;;
13469;SDS011;6807;48.682;9.032;2023-07-24T04:34:29;10.45;;;6.57;;
13469;SDS011;6807;48.682;9.032;2023-07-24T04:36:59;9.88;;;6.68;;
13469;SDS011;6807;48.682;9.032;2023-07-24T04:39:26;7.90;;;5.78;;
13469;SDS011;6807;48.682;9.032;2023-07-24T04:41:53;8.00;;;6.13;;
13469;SDS011;6807;48.682;9.032;2023-07-24T04:44:20;8.68;;;6.50;;
13469;SDS011;6807;48.682;9.032;2023-07-24T04:46:47;10.45;;;6.88;;
13469;SDS011;6807;48.682;9.032;2023-07-24T04:49:14;8.88;;;6.60;;
13469;SDS011;6807;48.682;9.032;2023-07-24T04:51:41;11.68;;;7.70;;
13469;SDS011;6807;48.682;9.032;2023-07-24T04:54:14;8.57;;;6.85;;
13469;SDS011;6807;48.682;9.032;2023-07-24T04:56:41;9.15;;;6.97;;
13469;SDS011;6807;48.682;9.032;2023-07-24T04:59:08;12.20;;;7.45;;
13469;SDS011;6807;48.682;9.032;2023-07-24T05:01:37;10.15;;;6.25;;
13469;SDS011;6807;48.682;9.032;2023-07-24T05:04:04;11.73;;;6.85;;
13469;SDS011;6807;48.682;9.032;2023-07-24T05:06:31;10.45;;;6.72;;
13469;SDS011;6807;48.682;9.032;2023-07-24T05:09:00;9.90;;;6.60;;
13469;SDS011;6807;48.682;9.032;2023-07-24T05:11:28;10.60;;;6.68;;
13469;SDS011;6807;48.682;9.032;2023-07-24T05:13:55;9.90;;;6.95;;
13469;SDS011;6807;48.682;9.032;2023-07-24T05:16:24;11.27;;;7.47;;
13469;SDS011;6807;48.682;9.032;2023-07-24T05:19:05;11.23;;;7.07;;
13469;SDS011;6807;48.682;9.032;2023-07-24T05:21:32;9.18;;;7.05;;
13469;SDS011;6807;48.682;9.032;2023-07-24T05:23:59;11.10;;;7.55;;
13469;SDS011;6807;48.682;9.032;2023-07-24T05:26:26;11.98;;;7.10;;
13469;SDS011;6807;48.682;9.032;2023-07-24T05:28:54;12.18;;;7.47;;
13469;SDS011;6807;48.682;9.032;2023-07-24T05:31:21;13.05;;;7.68;;
13469;SDS011;6807;48.682;9.032;2023-07-24T05:33:58;10.52;;;6.95;;
13469;SDS011;6807;48.682;9.032;2023-07-24T05:36:25;11.05;;;7.82;;
13469;SDS011;6807;48.682;9.032;2023-07-24T05:38:51;11.07;;;6.88;;
13469;SDS011;6807;48.682;9.032;2023-07-24T05:41:18;11.77;;;7.68;;
13469;SDS011;6807;48.682;9.032;2023-07-24T05:43:45;11.65;;;6.97;;
13469;SDS011;6807;48.682;9.032;2023-07-24T05:46:13;12.52;;;7.60;;
13469;SDS011;6807;48.682;9.032;2023-07-24T05:48:41;12.85;;;7.18;;
13469;SDS011;6807;48.682;9.032;2023-07-24T05:51:08;10.38;;;7.20;;
13469;SDS011;6807;48.682;9.032;2023-07-24T05:53:36;11.55;;;7.85;;
13469;SDS011;6807;48.682;9.032;2023-07-24T05:56:03;11.32;;;6.88;;
13469;SDS011;6807;48.682;9.032;2023-07-24T05:58:30;13.45;;;7.53;;
13469;SDS011;6807;48.682;9.032;2023-07-24T06:00:57;10.65;;;7.25;;
13469;SDS011;6807;48.682;9.032;2023-07-24T06:03:25;11.18;;;7.20;;
13469;SDS011;6807;48.682;9.032;2023-07-24T06:05:52;12.02;;;7.20;;
13469;SDS011;6807;48.682;9.032;2023-07-24T06:08:19;11.43;;;7.25;;
13469;SDS011;6807;48.682;9.032;2023-07-24T06:10:47;9.23;;;6.53;;
13469;SDS011;6807;48.682;9.032;2023-07-24T06:13:14;10.80;;;7.40;;
13469;SDS011;6807;48.682;9.032;2023-07-24T06:15:41;8.25;;;6.47;;
13469;SDS011;6807;48.682;9.032;2023-07-24T06:18:08;8.20;;;6.18;;
13469;SDS011;6807;48.682;9.032;2023-07-24T06:20:36;9.13;;;6.88;;
13469;SDS011;6807;48.682;9.032;2023-07-24T06:23:03;9.52;;;7.13;;
13469;SDS011;6807;48.682;9.032;2023-07-24T06:25:30;10.68;;;7.63;;
13469;SDS011;6807;48.682;9.032;2023-07-24T06:27:57;9.63;;;6.63;;
13469;SDS011;6807;48.682;9.032;2023-07-24T06:30:24;9.45;;;6.57;;
13469;SDS011;6807;48.682;9.032;2023-07-24T06:32:51;9.88;;;7.00;;
13469;SDS011;6807;48.682;9.032;2023-07-24T06:35:18;10.80;;;7.07;;
13469;SDS011;6807;48.682;9.032;2023-07-24T06:37:47;11.80;;;7.30;;
13469;SDS011;6807;48.682;9.032;2023-07-24T06:40:14;11.18;;;7.18;;
13469;SDS011;6807;48.682;9.032;2023-07-24T06:42:41;9.88;;;6.72;;
13469;SDS011;6807;48.682;9.032;2023-07-24T06:45:08;9.32;;;7.13;;
13469;SDS011;6807;48.682;9.032;2023-07-24T06:47:35;11.10;;;6.85;;
13469;SDS011;6807;48.682;9.032;2023-07-24T06:50:02;9.05;;;6.75;;
13469;SDS011;6807;48.682;9.032;2023-07-24T06:52:30;11.07;;;6.60;;
13469;SDS011;6807;48.682;9.032;2023-07-24T06:54:59;9.50;;;7.10;;
13469;SDS011;6807;48.682;9.032;2023-07-24T06:57:25;11.02;;;7.35;;
13469;SDS011;6807;48.682;9.032;2023-07-24T06:59:52;11.35;;;7.05;;
13469;SDS011;6807;48.682;9.032;2023-07-24T07:02:19;11.07;;;7.43;;
13469;SDS011;6807;48.682;9.032;2023-07-24T07:04:46;9.65;;;6.93;;
13469;SDS011;6807;48.682;9.032;2023-07-24T07:07:13;11.18;;;6.97;;
13469;SDS011;6807;48.682;9.032;2023-07-24T07:09:40;10.13;;;7.32;;
13469;SDS011;6807;48.682;9.032;2023-07-24T07:12:08;9.60;;;6.88;;
13469;SDS011;6807;48.682;9.032;2023-07-24T07:14:41;9.30;;;6.43;;
13469;SDS011;6807;48.682;9.032;2023-07-24T07:17:11;9.77;;;6.95;;
13469;SDS011;6807;48.682;9.032;2023-07-24T07:19:38;9.63;;;7.03;;
13469;SDS011;6807;48.682;9.032;2023-07-24T07:22:05;9.75;;;6.88;;
13469;SDS011;6807;48.682;9.032;2023-07-24T07:24:32;8.75;;;6.80;;
13469;SDS011;6807;48.682;9.032;2023-07-24T07:26:59;8.82;;;7.07;;
13469;SDS011;6807;48.682;9.032;2023-07-24T07:29:27;9.38;;;6.80;;
13469;SDS011;6807;48.682;9.032;2023-07-24T07:31:56;10.95;;;7.78;;
13469;SDS011;6807;48.682;9.032;2023-07-24T07:34:23;11.70;;;7.32;;
13469;SDS011;6807;48.682;9.032;2023-07-24T07:36:52;12.98;;;7.70;;
13469;SDS011;6807;48.682;9.032;2023-07-24T07:39:19;17.15;;;7.15;;
13469;SDS011;6807;48.682;9.032;2023-07-24T07:41:46;11.43;;;7.10;;
13469;SDS011;6807;48.682;9.032;2023-07-24T07:44:13;11.73;;;7.38;;
13469;SDS011;6807;48.682;9.032;2023-07-24T07:46:41;10.30;;;7.32;;
13469;SDS011;6807;48.682;9.032;2023-07-24T07:49:08;12.43;;;7.03;;
13469;SDS011;6807;48.682;9.032;2023-07-24T07:51:35;13.13;;;7.63;;
13469;SDS011;6807;48.682;9.032;2023-07-24T07:54:02;12.07;;;7.07;;
13469;SDS011;6807;48.682;9.032;2023-07-24T07:56:30;10.95;;;6.80;;
13469;SDS011;6807;48.682;9.032;2023-07-24T07:58:57;13.68;;;6.85;;
13469;SDS011;6807;48.682;9.032;2023-07-24T08:01:23;11.20;;;7.43;;
13469;SDS011;6807;48.682;9.032;2023-07-24T08:03:52;10.52;;;7.18;;
13469;SDS011;6807;48.682;9.032;2023-07-24T08:06:19;10.27;;;7.72;;
13469;SDS011;6807;48.682;9.032;2023-07-24T08:08:46;9.30;;;6.88;;
13469;SDS011;6807;48.682;9.032;2023-07-24T08:11:13;11.27;;;5.95;;
13469;SDS011;6807;48.682;9.032;2023-07-24T08:13:41;9.82;;;6.43;;
13469;SDS011;6807;48.682;9.032;2023-07-24T08:16:12;9.02;;;6.13;;
13469;SDS011;6807;48.682;9.032;2023-07-24T08:18:43;8.90;;;6.28;;
13469;SDS011;6807;48.682;9.032;2023-07-24T08:21:11;8.00;;;5.65;;
13469;SDS011;6807;48.682;9.032;2023-07-24T08:23:38;6.82;;;5.72;;
13469;SDS011;6807;48.682;9.032;2023-07-24T08:26:07;8.10;;;5.50;;
13469;SDS011;6807;48.682;9.032;2023-07-24T08:28:34;8.32;;;4.85;;
13469;SDS011;6807;48.682;9.032;2023-07-24T08:31:01;6.50;;;4.85;;
13469;SDS011;6807;48.682;9.032;2023-07-24T08:33:28;9.15;;;5.45;;
13469;SDS011;6807;48.682;9.032;2023-07-24T08:35:59;8.55;;;5.45;;
13469;SDS011;6807;48.682;9.032;2023-07-24T08:38:28;6.28;;;4.90;;
13469;SDS011;6807;48.682;9.032;2023-07-24T08:41:01;6.22;;;4.95;;
13469;SDS011;6807;48.682;9.032;2023-07-24T08:43:30;6.53;;;4.88;;
13469;SDS011;6807;48.682;9.032;2023-07-24T08:46:00;6.28;;;4.63;;
13469;SDS011;6807;48.682;9.032;2023-07-24T08:48:29;7.93;;;5.28;;
13469;SDS011;6807;48.682;9.032;2023-07-24T08:50:59;5.43;;;4.63;;
13469;SDS011;6807;48.682;9.032;2023-07-24T08:53:40;10.02;;;5.85;;
13469;SDS011;6807;48.682;9.032;2023-07-24T08:56:08;8.25;;;5.40;;
13469;SDS011;6807;48.682;9.032;2023-07-24T08:58:37;9.38;;;5.93;;
13469;SDS011;6807;48.682;9.032;2023-07-24T09:01:05;10.25;;;6.15;;
13469;SDS011;6807;48.682;9.032;2023-07-24T09:03:32;7.20;;;5.57;;
13469;SDS011;6807;48.682;9.032;2023-07-24T09:05:59;9.45;;;5.30;;
13469;SDS011;6807;48.682;9.032;2023-07-24T09:08:29;8.40;;;5.13;;
13469;SDS011;6807;48.682;9.032;2023-07-24T09:10:58;7.07;;;4.72;;
13469;SDS011;6807;48.682;9.032;2023-07-24T09:13:40;8.05;;;4.70;;
13469;SDS011;6807;48.682;9.032;2023-07-24T09:16:09;6.72;;;4.65;;
13469;SDS011;6807;48.682;9.032;2023-07-24T09:18:47;6.15;;;4.32;;
13469;SDS011;6807;48.682;9.032;2023-07-24T09:21:26;5.35;;;4.40;;
13469;SDS011;6807;48.682;9.032;2023-07-24T09:23:53;8.45;;;5.05;;
13469;SDS011;6807;48.682;9.032;2023-07-24T09:26:21;6.93;;;4.85;;
13469;SDS011;6807;48.682;9.032;2023-07-24T09:28:51;7.18;;;4.38;;
13469;SDS011;6807;48.682;9.032;2023-07-24T09:31:18;5.43;;;4.20;;
13469;SDS011;6807;48.682;9.032;2023-07-24T09:33:45;6.15;;;4.65;;
13469;SDS011;6807;48.682;9.032;2023-07-24T09:36:12;5.97;;;5.05;;
13469;SDS011;6807;48.682;9.032;2023-07-24T09:38:39;6.30;;;4.55;;
13469;SDS011;6807;48.682;9.032;2023-07-24T09:41:07;10.00;;;5.25;;
13469;SDS011;6807;48.682;9.032;2023-07-24T09:43:35;6.53;;;4.82;;
13469;SDS011;6807;48.682;9.032;2023-07-24T09:46:04;6.32;;;5.28;;
13469;SDS011;6807;48.682;9.032;2023-07-24T09:48:31;7.18;;;4.78;;
13469;SDS011;6807;48.682;9.032;2023-07-24T09:51:00;6.82;;;5.70;;
13469;SDS011;6807;48.682;9.032;2023-07-24T09:53:31;6.00;;;5.03;;
13469;SDS011;6807;48.682;9.032;2023-07-24T09:56:00;5.82;;;4.90;;
13469;SDS011;6807;48.682;9.032;2023-07-24T09:58:32;6.35;;;4.88;;
13469;SDS011;6807;48.682;9.032;2023-07-24T10:01:01;6.30;;;4.53;;
13469;SDS011;6807;48.682;9.032;2023-07-24T10:03:30;10.38;;;5.68;;
13469;SDS011;6807;48.682;9.032;2023-07-24T10:05:59;7.55;;;5.20;;
13469;SDS011;6807;48.682;9.032;2023-07-24T10:08:26;10.25;;;5.47;;
13469;SDS011;6807;48.682;9.032;2023-07-24T10:10:54;6.47;;;5.28;;
13469;SDS011;6807;48.682;9.032;2023-07-24T10:13:30;9.63;;;5.70;;
13469;SDS011;6807;48.682;9.032;2023-07-24T10:16:03;7.05;;;5.82;;
13469;SDS011;6807;48.682;9.032;2023-07-24T10:18:33;6.70;;;5.40;;
13469;SDS011;6807;48.682;9.032;2023-07-24T10:21:02;7.70;;;5.60;;
13469;SDS011;6807;48.682;9.032;2023-07-24T10:23:30;11.30;;;5.93;;
13469;SDS011;6807;48.682;9.032;2023-07-24T10:26:02;6.53;;;5.55;;
13469;SDS011;6807;48.682;9.032;2023-07-24T10:28:32;8.10;;;5.60;;
13469;SDS011;6807;48.682;9.032;2023-07-24T10:31:25;9.45;;;5.85;;
13469;SDS011;6807;48.682;9.032;2023-07-24T10:37:18;8.55;;;5.93;;
13469;SDS011;6807;48.682;9.032;2023-07-24T10:40:00;8.73;;;6.18;;
13469;SDS011;6807;48.682;9.032;2023-07-24T10:55:27;9.93;;;5.95;;
13469;SDS011;6807;48.682;9.032;2023-07-24T10:58:02;13.07;;;6.78;;
13469;SDS011;6807;48.682;9.032;2023-07-24T11:00:29;12.68;;;6.30;;
13469;SDS011;6807;48.682;9.032;2023-07-24T11:02:56;9.27;;;6.20;;
13469;SDS011;6807;48.682;9.032;2023-07-24T11:05:23;8.65;;;6.32;;
13469;SDS011;6807;48.682;9.032;2023-07-24T11:07:50;10.82;;;6.65;;
13469;SDS011;6807;48.682;9.032;2023-07-24T11:10:27;8.07;;;5.75;;
13469;SDS011;6807;48.682;9.032;2023-07-24T11:12:56;9.20;;;6.03;;
13469;SDS011;6807;48.682;9.032;2023-07-24T11:15:27;9.95;;;6.70;;
13469;SDS011;6807;48.682;9.032;2023-07-24T11:17:54;7.63;;;6.38;;
13469;SDS011;6807;48.682;9.032;2023-07-24T11:20:21;10.02;;;6.03;;
13469;SDS011;6807;48.682;9.032;2023-07-24T11:22:48;9.52;;;6.07;;
13469;SDS011;6807;48.682;9.032;2023-07-24T11:25:14;9.00;;;6.00;;
13469;SDS011;6807;48.682;9.032;2023-07-24T11:27:43;8.13;;;6.20;;
13469;SDS011;6807;48.682;9.032;2023-07-24T11:30:11;8.77;;;5.97;;
13469;SDS011;6807;48.682;9.032;2023-07-24T11:32:39;9.55;;;6.32;;
13469;SDS011;6807;48.682;9.032;2023-07-24T11:35:07;10.80;;;7.07;;
13469;SDS011;6807;48.682;9.032;2023-07-24T11:37:34;7.60;;;5.80;;
13469;SDS011;6807;48.682;9.032;2023-07-24T11:40:02;7.20;;;5.47;;
13469;SDS011;6807;48.682;9.032;2023-07-24T11:42:36;7.53;;;5.45;;
13469;SDS011;6807;48.682;9.032;2023-07-24T11:45:05;7.45;;;5.60;;
13469;SDS011;6807;48.682;9.032;2023-07-24T11:50:11;6.03;;;5.43;;
13469;SDS011;6807;48.682;9.032;2023-07-24T11:52:39;9.23;;;5.65;;
13469;SDS011;6807;48.682;9.032;2023-07-24T11:55:08;9.00;;;6.53;;
13469;SDS011;6807;48.682;9.032;2023-07-24T11:57:35;9.30;;;5.97;;
13469;SDS011;6807;48.682;9.032;2023-07-24T12:00:05;7.85;;;5.32;;
13469;SDS011;6807;48.682;9.032;2023-07-24T12:02:43;8.07;;;5.53;;
13469;SDS011;6807;48.682;9.032;2023-07-24T12:05:10;8.43;;;6.13;;
13469;SDS011;6807;48.682;9.032;2023-07-24T12:07:38;6.80;;;5.70;;
13469;SDS011;6807;48.682;9.032;2023-07-24T12:10:05;6.75;;;5.30;;
13469;SDS011;6807;48.682;9.032;2023-07-24T12:12:37;8.13;;;5.95;;
13469;SDS011;6807;48.682;9.032;2023-07-24T12:15:06;7.05;;;5.25;;
13469;SDS011;6807;48.682;9.032;2023-07-24T12:17:34;6.45;;;5.32;;
13469;SDS011;6807;48.682;9.032;2023-07-24T12:20:01;6.82;;;5.30;;
13469;SDS011;6807;48.682;9.032;2023-07-24T12:22:29;8.13;;;5.65;;
13469;SDS011;6807;48.682;9.032;2023-07-24T12:24:56;7.60;;;5.55;;
13469;SDS011;6807;48.682;9.032;2023-07-24T12:27:23;5.97;;;5.05;;
13469;SDS011;6807;48.682;9.032;2023-07-24T12:29:50;6.18;;;4.70;;
13469;SDS011;6807;48.682;9.032;2023-07-24T12:32:20;8.38;;;5.28;;
13469;SDS011;6807;48.682;9.032;2023-07-24T12:34:48;7.32;;;5.35;;
13469;SDS011;6807;48.682;9.032;2023-07-24T12:37:15;8.50;;;4.95;;
13469;SDS011;6807;48.682;9.032;2023-07-24T12:39:43;6.13;;;5.00;;
13469;SDS011;6807;48.682;9.032;2023-07-24T12:42:10;7.65;;;5.40;;
13469;SDS011;6807;48.682;9.032;2023-07-24T12:44:37;7.53;;;5.18;;
13469;SDS011;6807;48.682;9.032;2023-07-24T12:47:04;6.57;;;4.78;;
13469;SDS011;6807;48.682;9.032;2023-07-24T12:49:33;8.05;;;5.40;;
13469;SDS011;6807;48.682;9.032;2023-07-24T12:52:00;6.03;;;5.25;;
13469;SDS011;6807;48.682;9.032;2023-07-24T12:54:27;6.18;;;5.07;;
13469;SDS011;6807;48.682;9.032;2023-07-24T12:56:54;6.03;;;4.72;;
13469;SDS011;6807;48.682;9.032;2023-07-24T12:59:21;5.72;;;4.95;;
13469;SDS011;6807;48.682;9.032;2023-07-24T13:01:48;6.55;;;4.72;;
13469;SDS011;6807;48.682;9.032;2023-07-24T13:04:15;6.20;;;4.50;;
13469;SDS011;6807;48.682;9.032;2023-07-24T13:06:43;5.75;;;4.72;;
13469;SDS011;6807;48.682;9.032;2023-07-24T13:09:10;7.35;;;5.30;;
13469;SDS011;6807;48.682;9.032;2023-07-24T13:11:37;5.25;;;4.53;;
13469;SDS011;6807;48.682;9.032;2023-07-24T13:14:03;5.32;;;4.15;;
13469;SDS011;6807;48.682;9.032;2023-07-24T13:16:30;6.38;;;4.18;;
13469;SDS011;6807;48.682;9.032;2023-07-24T13:18:57;5.25;;;4.25;;
13469;SDS011;6807;48.682;9.032;2023-07-24T13:21:24;4.85;;;4.18;;
13469;SDS011;6807;48.682;9.032;2023-07-24T13:23:52;5.07;;;4.53;;
13469;SDS011;6807;48.682;9.032;2023-07-24T13:26:21;5.03;;;3.67;;
13469;SDS011;6807;48.682;9.032;2023-07-24T13:28:50;4.38;;;3.58;;
13469;SDS011;6807;48.682;9.032;2023-07-24T13:31:18;4.63;;;4.13;;
13469;SDS011;6807;48.682;9.032;2023-07-24T13:33:45;5.43;;;4.30;;
13469;SDS011;6807;48.682;9.032;2023-07-24T13:36:13;5.05;;;4.03;;
13469;SDS011;6807;48.682;9.032;2023-07-24T13:38:40;6.20;;;4.65;;
13469;SDS011;6807;48.682;9.032;2023-07-24T13:41:08;6.38;;;4.07;;
13469;SDS011;6807;48.682;9.032;2023-07-24T13:43:35;5.40;;;4.50;;
13469;SDS011;6807;48.682;9.032;2023-07-24T13:46:02;5.35;;;3.95;;
13469;SDS011;6807;48.682;9.032;2023-07-24T13:48:29;5.10;;;4.43;;
13469;SDS011;6807;48.682;9.032;2023-07-24T13:50:56;5.18;;;3.85;;
13469;SDS011;6807;48.682;9.032;2023-07-24T13:53:23;6.45;;;4.15;;
13469;SDS011;6807;48.682;9.032;2023-07-24T13:55:50;4.43;;;3.85;;
13469;SDS011;6807;48.682;9.032;2023-07-24T13:58:18;4.75;;;3.80;;
13469;SDS011;6807;48.682;9.032;2023-07-24T14:00:45;5.47;;;4.35;;
13469;SDS011;6807;48.682;9.032;2023-07-24T14:03:12;4.32;;;3.92;;
13469;SDS011;6807;48.682;9.032;2023-07-24T14:05:39;4.70;;;4.10;;
13469;SDS011;6807;48.682;9.032;2023-07-24T14:08:06;4.35;;;3.90;;
13469;SDS011;6807;48.682;9.032;2023-07-24T14:10:33;4.95;;;3.80;;
13469;SDS011;6807;48.682;9.032;2023-07-24T14:13:01;4.20;;;3.70;;
13469;SDS011;6807;48.682;9.032;2023-07-24T14:15:29;3.97;;;3.55;;
13469;SDS011;6807;48.682;9.032;2023-07-24T14:17:56;5.90;;;3.83;;
13469;SDS011;6807;48.682;9.032;2023-07-24T14:20:23;4.10;;;3.33;;
13469;SDS011;6807;48.682;9.032;2023-07-24T14:22:50;10.13;;;3.90;;
13469;SDS011;6807;48.682;9.032;2023-07-24T14:25:16;5.97;;;3.72;;
13469;SDS011;6807;48.682;9.032;2023-07-24T14:27:43;4.65;;;4.15;;
13469;SDS011;6807;48.682;9.032;2023-07-24T14:30:10;4.78;;;4.18;;
13469;SDS011;6807;48.682;9.032;2023-07-24T14:32:39;5.78;;;4.00;;
13469;SDS011;6807;48.682;9.032;2023-07-24T14:35:06;5.85;;;4.00;;
13469;SDS011;6807;48.682;9.032;2023-07-24T14:37:33;4.30;;;3.67;;
13469;SDS011;6807;48.682;9.032;2023-07-24T14:40:00;5.03;;;3.80;;
13469;SDS011;6807;48.682;9.032;2023-07-24T14:42:27;4.43;;;3.90;;
13469;SDS011;6807;48.682;9.032;2023-07-24T14:44:54;5.22;;;4.32;;
13469;SDS011;6807;48.682;9.032;2023-07-24T14:47:26;5.28;;;3.83;;
13469;SDS011;6807;48.682;9.032;2023-07-24T14:49:55;5.22;;;4.03;;
13469;SDS011;6807;48.682;9.032;2023-07-24T14:52:23;5.40;;;3.97;;
13469;SDS011;6807;48.682;9.032;2023-07-24T14:54:50;4.97;;;3.50;;
13469;SDS011;6807;48.682;9.032;2023-07-24T14:57:16;5.38;;;3.90;;
13469;SDS011;6807;48.682;9.032;2023-07-24T14:59:43;6.32;;;3.80;;
13469;SDS011;6807;48.682;9.032;2023-07-24T15:02:10;4.28;;;3.63;;
13469;SDS011;6807;48.682;9.032;2023-07-24T15:04:37;4.20;;;3.67;;
13469;SDS011;6807;48.682;9.032;2023-07-24T15:07:05;5.80;;;3.60;;
13469;SDS011;6807;48.682;9.032;2023-07-24T15:09:32;5.05;;;3.45;;
13469;SDS011;6807;48.682;9.032;2023-07-24T15:11:59;4.60;;;3.55;;
13469;SDS011;6807;48.682;9.032;2023-07-24T15:14:26;3.92;;;3.50;;
13469;SDS011;6807;48.682;9.032;2023-07-24T15:16:52;4.55;;;3.45;;
13469;SDS011;6807;48.682;9.032;2023-07-24T15:19:19;4.72;;;3.80;;
13469;SDS011;6807;48.682;9.032;2023-07-24T15:21:46;6.28;;;3.72;;